sensor_id;sensor_type;location;lat;lon;timestamp;P1;durP1;ratioP1;P2;durP2;ratioP2
27517;SDS011;14962;52.482;13.142;2024-03-02T00:01:58;48.55;;;22.48;;
27517;SDS011;14962;52.482;13.142;2024-03-02T00:04:24;49.15;;;22.75;;
27517;SDS011;14962;52.482;13.142;2024-03-02T00:06:51;52.40;;;23.23;;
27517;SDS011;14962;52.482;13.142;2024-03-02T00:09:19;46.15;;;19.67;;
27517;SDS011;14962;52.482;13.142;2024-03-02T00:11:45;39.80;;;17.23;;
27517;SDS011;14962;52.482;13.142;2024-03-02T00:14:11;40.95;;;17.70;;
27517;SDS011;14962;52.482;13.142;2024-03-02T00:16:37;39.55;;;18.27;;
27517;SDS011;14962;52.482;13.142;2024-03-02T00:19:04;44.03;;;19.30;;
27517;SDS011;14962;52.482;13.142;2024-03-02T00:21:31;39.55;;;19.00;;
27517;SDS011;14962;52.482;13.142;2024-03-02T00:23:57;39.70;;;17.90;;
27517;SDS011;14962;52.482;13.142;2024-03-02T00:26:23;43.03;;;20.08;;
27517;SDS011;14962;52.482;13.142;2024-03-02T00:28:49;37.45;;;18.42;;
27517;SDS011;14962;52.482;13.142;2024-03-02T00:31:15;40.30;;;19.27;;
27517;SDS011;14962;52.482;13.142;2024-03-02T00:33:43;38.35;;;18.38;;
27517;SDS011;14962;52.482;13.142;2024-03-02T00:36:10;42.47;;;20.05;;
27517;SDS011;14962;52.482;13.142;2024-03-02T00:38:44;38.90;;;17.67;;
27517;SDS011;14962;52.482;13.142;2024-03-02T00:41:14;40.95;;;19.23;;
27517;SDS011;14962;52.482;13.142;2024-03-02T00:46:16;36.35;;;17.75;;
27517;SDS011;14962;52.482;13.142;2024-03-02T00:49:02;38.03;;;17.77;;
27517;SDS011;14962;52.482;13.142;2024-03-02T00:51:32;35.65;;;16.77;;
27517;SDS011;14962;52.482;13.142;2024-03-02T00:53:59;33.53;;;17.27;;
27517;SDS011;14962;52.482;13.142;2024-03-02T00:56:26;44.85;;;18.92;;
27517;SDS011;14962;52.482;13.142;2024-03-02T00:58:52;38.55;;;16.92;;
27517;SDS011;14962;52.482;13.142;2024-03-02T01:01:18;37.88;;;17.65;;
27517;SDS011;14962;52.482;13.142;2024-03-02T01:03:47;36.85;;;18.77;;
27517;SDS011;14962;52.482;13.142;2024-03-02T01:06:16;37.80;;;17.42;;
27517;SDS011;14962;52.482;13.142;2024-03-02T01:08:42;41.05;;;18.70;;
27517;SDS011;14962;52.482;13.142;2024-03-02T01:11:08;41.30;;;18.05;;
27517;SDS011;14962;52.482;13.142;2024-03-02T01:13:34;39.03;;;19.13;;
27517;SDS011;14962;52.482;13.142;2024-03-02T01:16:01;35.92;;;18.58;;
27517;SDS011;14962;52.482;13.142;2024-03-02T01:18:27;34.92;;;18.00;;
27517;SDS011;14962;52.482;13.142;2024-03-02T01:20:53;39.40;;;19.48;;
27517;SDS011;14962;52.482;13.142;2024-03-02T01:23:22;41.80;;;19.42;;
27517;SDS011;14962;52.482;13.142;2024-03-02T01:25:49;37.80;;;18.88;;
27517;SDS011;14962;52.482;13.142;2024-03-02T01:28:15;41.67;;;19.55;;
27517;SDS011;14962;52.482;13.142;2024-03-02T01:30:41;40.30;;;19.75;;
27517;SDS011;14962;52.482;13.142;2024-03-02T01:33:07;37.28;;;18.23;;
27517;SDS011;14962;52.482;13.142;2024-03-02T01:35:33;35.35;;;17.48;;
27517;SDS011;14962;52.482;13.142;2024-03-02T01:37:59;38.53;;;17.10;;
27517;SDS011;14962;52.482;13.142;2024-03-02T01:40:26;35.25;;;17.70;;
27517;SDS011;14962;52.482;13.142;2024-03-02T01:42:52;42.67;;;18.30;;
27517;SDS011;14962;52.482;13.142;2024-03-02T01:45:19;41.88;;;20.27;;
27517;SDS011;14962;52.482;13.142;2024-03-02T01:47:45;40.20;;;18.52;;
27517;SDS011;14962;52.482;13.142;2024-03-02T01:50:11;35.80;;;18.27;;
27517;SDS011;14962;52.482;13.142;2024-03-02T01:52:38;36.60;;;17.75;;
27517;SDS011;14962;52.482;13.142;2024-03-02T01:55:04;45.05;;;19.73;;
27517;SDS011;14962;52.482;13.142;2024-03-02T01:57:31;37.88;;;18.17;;
27517;SDS011;14962;52.482;13.142;2024-03-02T01:59:57;38.05;;;19.13;;
27517;SDS011;14962;52.482;13.142;2024-03-02T02:02:23;42.55;;;19.60;;
27517;SDS011;14962;52.482;13.142;2024-03-02T02:04:49;46.15;;;20.90;;
27517;SDS011;14962;52.482;13.142;2024-03-02T02:07:15;39.45;;;19.63;;
27517;SDS011;14962;52.482;13.142;2024-03-02T02:09:41;43.53;;;20.58;;
27517;SDS011;14962;52.482;13.142;2024-03-02T02:12:08;43.75;;;22.35;;
27517;SDS011;14962;52.482;13.142;2024-03-02T02:14:34;50.17;;;23.27;;
27517;SDS011;14962;52.482;13.142;2024-03-02T02:17:00;47.17;;;23.52;;
27517;SDS011;14962;52.482;13.142;2024-03-02T02:19:26;47.58;;;22.95;;
27517;SDS011;14962;52.482;13.142;2024-03-02T02:21:52;46.67;;;23.27;;
27517;SDS011;14962;52.482;13.142;2024-03-02T02:24:18;52.10;;;23.80;;
27517;SDS011;14962;52.482;13.142;2024-03-02T02:26:44;53.40;;;25.73;;
27517;SDS011;14962;52.482;13.142;2024-03-02T02:29:10;48.33;;;24.35;;
27517;SDS011;14962;52.482;13.142;2024-03-02T02:31:36;49.97;;;23.92;;
27517;SDS011;14962;52.482;13.142;2024-03-02T02:34:03;55.42;;;24.42;;
27517;SDS011;14962;52.482;13.142;2024-03-02T02:36:29;54.50;;;25.23;;
27517;SDS011;14962;52.482;13.142;2024-03-02T02:38:55;52.67;;;24.20;;
27517;SDS011;14962;52.482;13.142;2024-03-02T02:41:21;56.42;;;25.80;;
27517;SDS011;14962;52.482;13.142;2024-03-02T02:43:47;50.85;;;24.00;;
27517;SDS011;14962;52.482;13.142;2024-03-02T02:46:13;54.20;;;24.70;;
27517;SDS011;14962;52.482;13.142;2024-03-02T02:48:39;50.85;;;24.92;;
27517;SDS011;14962;52.482;13.142;2024-03-02T02:51:05;57.80;;;28.30;;
27517;SDS011;14962;52.482;13.142;2024-03-02T02:53:31;54.17;;;24.27;;
27517;SDS011;14962;52.482;13.142;2024-03-02T02:55:57;44.45;;;21.95;;
27517;SDS011;14962;52.482;13.142;2024-03-02T02:58:23;43.25;;;21.17;;
27517;SDS011;14962;52.482;13.142;2024-03-02T03:00:49;45.28;;;21.00;;
27517;SDS011;14962;52.482;13.142;2024-03-02T03:03:15;56.13;;;23.42;;
27517;SDS011;14962;52.482;13.142;2024-03-02T03:05:41;47.75;;;23.02;;
27517;SDS011;14962;52.482;13.142;2024-03-02T03:08:07;44.28;;;20.33;;
27517;SDS011;14962;52.482;13.142;2024-03-02T03:10:33;47.13;;;22.20;;
27517;SDS011;14962;52.482;13.142;2024-03-02T03:12:59;57.78;;;27.23;;
27517;SDS011;14962;52.482;13.142;2024-03-02T03:15:25;72.15;;;31.15;;
27517;SDS011;14962;52.482;13.142;2024-03-02T03:17:51;58.90;;;30.08;;
27517;SDS011;14962;52.482;13.142;2024-03-02T03:20:17;66.05;;;29.50;;
27517;SDS011;14962;52.482;13.142;2024-03-02T03:22:42;68.20;;;31.48;;
27517;SDS011;14962;52.482;13.142;2024-03-02T03:25:09;68.47;;;30.65;;
27517;SDS011;14962;52.482;13.142;2024-03-02T03:27:35;71.00;;;34.38;;
27517;SDS011;14962;52.482;13.142;2024-03-02T03:30:01;72.32;;;33.10;;
27517;SDS011;14962;52.482;13.142;2024-03-02T03:32:27;66.97;;;31.45;;
27517;SDS011;14962;52.482;13.142;2024-03-02T03:34:53;68.45;;;30.65;;
27517;SDS011;14962;52.482;13.142;2024-03-02T03:37:19;68.50;;;33.13;;
27517;SDS011;14962;52.482;13.142;2024-03-02T03:39:45;73.22;;;30.98;;
27517;SDS011;14962;52.482;13.142;2024-03-02T03:42:11;70.20;;;31.60;;
27517;SDS011;14962;52.482;13.142;2024-03-02T03:44:37;66.68;;;31.65;;
27517;SDS011;14962;52.482;13.142;2024-03-02T03:47:05;70.90;;;32.50;;
27517;SDS011;14962;52.482;13.142;2024-03-02T03:49:31;77.82;;;34.33;;
27517;SDS011;14962;52.482;13.142;2024-03-02T03:51:57;73.53;;;33.20;;
27517;SDS011;14962;52.482;13.142;2024-03-02T03:54:23;66.03;;;31.33;;
27517;SDS011;14962;52.482;13.142;2024-03-02T03:56:49;56.70;;;28.40;;
27517;SDS011;14962;52.482;13.142;2024-03-02T03:59:15;61.00;;;27.85;;
27517;SDS011;14962;52.482;13.142;2024-03-02T04:01:41;55.75;;;25.00;;
27517;SDS011;14962;52.482;13.142;2024-03-02T04:04:07;53.88;;;26.70;;
27517;SDS011;14962;52.482;13.142;2024-03-02T04:06:33;65.07;;;27.63;;
27517;SDS011;14962;52.482;13.142;2024-03-02T04:08:59;65.22;;;28.15;;
27517;SDS011;14962;52.482;13.142;2024-03-02T04:11:25;59.63;;;26.77;;
27517;SDS011;14962;52.482;13.142;2024-03-02T04:13:51;59.42;;;27.95;;
27517;SDS011;14962;52.482;13.142;2024-03-02T04:16:17;70.75;;;29.05;;
27517;SDS011;14962;52.482;13.142;2024-03-02T04:18:43;61.35;;;28.88;;
27517;SDS011;14962;52.482;13.142;2024-03-02T04:21:09;72.18;;;32.15;;
27517;SDS011;14962;52.482;13.142;2024-03-02T04:23:35;67.63;;;31.85;;
27517;SDS011;14962;52.482;13.142;2024-03-02T04:26:01;60.72;;;29.55;;
27517;SDS011;14962;52.482;13.142;2024-03-02T04:28:27;68.90;;;31.70;;
27517;SDS011;14962;52.482;13.142;2024-03-02T04:30:53;68.78;;;33.55;;
27517;SDS011;14962;52.482;13.142;2024-03-02T04:33:19;76.22;;;31.77;;
27517;SDS011;14962;52.482;13.142;2024-03-02T04:35:44;63.95;;;29.08;;
27517;SDS011;14962;52.482;13.142;2024-03-02T04:38:11;71.93;;;31.30;;
27517;SDS011;14962;52.482;13.142;2024-03-02T04:40:37;66.57;;;31.85;;
27517;SDS011;14962;52.482;13.142;2024-03-02T04:43:03;72.55;;;32.60;;
27517;SDS011;14962;52.482;13.142;2024-03-02T04:45:29;70.32;;;32.15;;
27517;SDS011;14962;52.482;13.142;2024-03-02T04:47:55;71.30;;;32.70;;
27517;SDS011;14962;52.482;13.142;2024-03-02T04:50:21;76.03;;;32.75;;
27517;SDS011;14962;52.482;13.142;2024-03-02T04:52:47;76.55;;;31.50;;
27517;SDS011;14962;52.482;13.142;2024-03-02T04:55:13;70.15;;;31.85;;
27517;SDS011;14962;52.482;13.142;2024-03-02T04:58:08;75.22;;;32.92;;
27517;SDS011;14962;52.482;13.142;2024-03-02T05:00:34;67.47;;;31.20;;
27517;SDS011;14962;52.482;13.142;2024-03-02T05:03:01;70.07;;;32.03;;
27517;SDS011;14962;52.482;13.142;2024-03-02T05:05:27;74.10;;;33.45;;
27517;SDS011;14962;52.482;13.142;2024-03-02T05:07:53;69.80;;;32.58;;
27517;SDS011;14962;52.482;13.142;2024-03-02T05:10:19;65.47;;;31.77;;
27517;SDS011;14962;52.482;13.142;2024-03-02T05:12:45;72.55;;;33.67;;
27517;SDS011;14962;52.482;13.142;2024-03-02T05:15:12;76.63;;;32.63;;
27517;SDS011;14962;52.482;13.142;2024-03-02T05:17:41;78.50;;;34.20;;
27517;SDS011;14962;52.482;13.142;2024-03-02T05:20:10;77.47;;;34.17;;
27517;SDS011;14962;52.482;13.142;2024-03-02T05:22:37;76.93;;;33.70;;
27517;SDS011;14962;52.482;13.142;2024-03-02T05:25:03;73.13;;;32.83;;
27517;SDS011;14962;52.482;13.142;2024-03-02T05:27:29;74.50;;;33.58;;
27517;SDS011;14962;52.482;13.142;2024-03-02T05:29:57;65.57;;;31.70;;
27517;SDS011;14962;52.482;13.142;2024-03-02T05:32:23;66.63;;;33.53;;
27517;SDS011;14962;52.482;13.142;2024-03-02T05:34:49;69.07;;;31.65;;
27517;SDS011;14962;52.482;13.142;2024-03-02T05:37:15;64.93;;;31.00;;
27517;SDS011;14962;52.482;13.142;2024-03-02T05:39:41;79.38;;;32.17;;
27517;SDS011;14962;52.482;13.142;2024-03-02T05:42:10;70.03;;;33.03;;
27517;SDS011;14962;52.482;13.142;2024-03-02T05:44:36;64.20;;;31.88;;
27517;SDS011;14962;52.482;13.142;2024-03-02T05:47:02;69.10;;;32.13;;
27517;SDS011;14962;52.482;13.142;2024-03-02T05:49:29;66.20;;;31.30;;
27517;SDS011;14962;52.482;13.142;2024-03-02T05:51:55;67.43;;;30.60;;
27517;SDS011;14962;52.482;13.142;2024-03-02T05:54:21;70.28;;;33.50;;
27517;SDS011;14962;52.482;13.142;2024-03-02T05:56:47;65.68;;;30.10;;
27517;SDS011;14962;52.482;13.142;2024-03-02T05:59:12;70.90;;;32.92;;
27517;SDS011;14962;52.482;13.142;2024-03-02T06:04:05;77.10;;;32.85;;
27517;SDS011;14962;52.482;13.142;2024-03-02T06:06:31;74.90;;;32.17;;
27517;SDS011;14962;52.482;13.142;2024-03-02T06:08:59;70.90;;;32.38;;
27517;SDS011;14962;52.482;13.142;2024-03-02T06:11:24;66.32;;;31.48;;
27517;SDS011;14962;52.482;13.142;2024-03-02T06:13:50;67.38;;;30.60;;
27517;SDS011;14962;52.482;13.142;2024-03-02T06:16:16;68.78;;;31.88;;
27517;SDS011;14962;52.482;13.142;2024-03-02T06:18:42;67.70;;;29.33;;
27517;SDS011;14962;52.482;13.142;2024-03-02T06:21:08;65.57;;;31.77;;
27517;SDS011;14962;52.482;13.142;2024-03-02T06:23:34;66.20;;;28.63;;
27517;SDS011;14962;52.482;13.142;2024-03-02T06:26:00;68.45;;;30.42;;
27517;SDS011;14962;52.482;13.142;2024-03-02T06:28:27;68.10;;;30.85;;
27517;SDS011;14962;52.482;13.142;2024-03-02T06:30:53;69.68;;;31.20;;
27517;SDS011;14962;52.482;13.142;2024-03-02T06:33:19;65.13;;;30.75;;
27517;SDS011;14962;52.482;13.142;2024-03-02T06:35:45;68.03;;;30.27;;
27517;SDS011;14962;52.482;13.142;2024-03-02T06:38:11;63.78;;;30.83;;
27517;SDS011;14962;52.482;13.142;2024-03-02T06:40:37;57.97;;;28.25;;
27517;SDS011;14962;52.482;13.142;2024-03-02T06:43:04;62.53;;;29.35;;
27517;SDS011;14962;52.482;13.142;2024-03-02T06:45:30;66.68;;;31.25;;
27517;SDS011;14962;52.482;13.142;2024-03-02T06:47:58;57.72;;;27.75;;
27517;SDS011;14962;52.482;13.142;2024-03-02T06:50:24;66.25;;;31.23;;
27517;SDS011;14962;52.482;13.142;2024-03-02T06:52:50;68.80;;;31.40;;
27517;SDS011;14962;52.482;13.142;2024-03-02T06:55:16;65.78;;;30.83;;
27517;SDS011;14962;52.482;13.142;2024-03-02T06:57:42;67.40;;;31.17;;
27517;SDS011;14962;52.482;13.142;2024-03-02T07:00:08;71.57;;;31.40;;
27517;SDS011;14962;52.482;13.142;2024-03-02T07:02:35;63.35;;;30.73;;
27517;SDS011;14962;52.482;13.142;2024-03-02T07:05:01;61.22;;;29.55;;
27517;SDS011;14962;52.482;13.142;2024-03-02T07:07:27;69.18;;;32.55;;
27517;SDS011;14962;52.482;13.142;2024-03-02T07:09:53;68.55;;;31.42;;
27517;SDS011;14962;52.482;13.142;2024-03-02T07:12:19;67.18;;;31.77;;
27517;SDS011;14962;52.482;13.142;2024-03-02T07:14:45;65.75;;;30.75;;
27517;SDS011;14962;52.482;13.142;2024-03-02T07:17:30;75.10;;;31.80;;
27517;SDS011;14962;52.482;13.142;2024-03-02T07:19:56;66.68;;;30.23;;
27517;SDS011;14962;52.482;13.142;2024-03-02T07:22:22;70.78;;;31.00;;
27517;SDS011;14962;52.482;13.142;2024-03-02T07:24:48;67.32;;;31.60;;
27517;SDS011;14962;52.482;13.142;2024-03-02T07:27:16;65.88;;;30.13;;
27517;SDS011;14962;52.482;13.142;2024-03-02T07:29:42;66.68;;;31.98;;
27517;SDS011;14962;52.482;13.142;2024-03-02T07:32:09;75.22;;;30.83;;
27517;SDS011;14962;52.482;13.142;2024-03-02T07:34:35;65.40;;;30.48;;
27517;SDS011;14962;52.482;13.142;2024-03-02T07:37:02;70.43;;;30.13;;
27517;SDS011;14962;52.482;13.142;2024-03-02T07:39:28;70.88;;;30.58;;
27517;SDS011;14962;52.482;13.142;2024-03-02T07:41:54;68.80;;;30.75;;
27517;SDS011;14962;52.482;13.142;2024-03-02T07:44:21;66.90;;;29.95;;
27517;SDS011;14962;52.482;13.142;2024-03-02T07:46:47;64.15;;;30.50;;
27517;SDS011;14962;52.482;13.142;2024-03-02T07:49:17;63.63;;;31.17;;
27517;SDS011;14962;52.482;13.142;2024-03-02T07:51:43;60.63;;;30.95;;
27517;SDS011;14962;52.482;13.142;2024-03-02T07:54:09;65.20;;;29.42;;
27517;SDS011;14962;52.482;13.142;2024-03-02T07:56:35;65.90;;;31.80;;
27517;SDS011;14962;52.482;13.142;2024-03-02T07:59:01;103.10;;;65.88;;
27517;SDS011;14962;52.482;13.142;2024-03-02T08:01:27;78.32;;;42.13;;
27517;SDS011;14962;52.482;13.142;2024-03-02T08:03:57;78.70;;;41.83;;
27517;SDS011;14962;52.482;13.142;2024-03-02T08:06:23;69.63;;;31.58;;
27517;SDS011;14962;52.482;13.142;2024-03-02T08:08:52;62.85;;;29.17;;
27517;SDS011;14962;52.482;13.142;2024-03-02T08:11:18;61.83;;;29.92;;
27517;SDS011;14962;52.482;13.142;2024-03-02T08:13:44;71.35;;;30.90;;
27517;SDS011;14962;52.482;13.142;2024-03-02T08:16:10;64.60;;;30.38;;
27517;SDS011;14962;52.482;13.142;2024-03-02T08:18:36;65.80;;;30.55;;
27517;SDS011;14962;52.482;13.142;2024-03-02T08:21:02;59.85;;;29.33;;
27517;SDS011;14962;52.482;13.142;2024-03-02T08:23:28;66.28;;;34.90;;
27517;SDS011;14962;52.482;13.142;2024-03-02T08:25:55;66.55;;;31.60;;
27517;SDS011;14962;52.482;13.142;2024-03-02T08:28:22;65.07;;;33.40;;
27517;SDS011;14962;52.482;13.142;2024-03-02T08:30:48;119.90;;;60.10;;
27517;SDS011;14962;52.482;13.142;2024-03-02T08:33:14;68.20;;;31.98;;
27517;SDS011;14962;52.482;13.142;2024-03-02T08:35:40;55.97;;;28.92;;
27517;SDS011;14962;52.482;13.142;2024-03-02T08:38:06;60.50;;;27.45;;
27517;SDS011;14962;52.482;13.142;2024-03-02T08:40:32;62.13;;;28.52;;
27517;SDS011;14962;52.482;13.142;2024-03-02T08:42:58;86.82;;;44.38;;
27517;SDS011;14962;52.482;13.142;2024-03-02T08:45:24;67.15;;;29.75;;
27517;SDS011;14962;52.482;13.142;2024-03-02T08:47:50;59.40;;;28.60;;
27517;SDS011;14962;52.482;13.142;2024-03-02T08:50:16;62.75;;;30.33;;
27517;SDS011;14962;52.482;13.142;2024-03-02T08:52:42;66.60;;;29.33;;
27517;SDS011;14962;52.482;13.142;2024-03-02T08:55:08;107.80;;;62.20;;
27517;SDS011;14962;52.482;13.142;2024-03-02T08:57:36;64.18;;;31.98;;
27517;SDS011;14962;52.482;13.142;2024-03-02T09:00:02;55.97;;;26.92;;
27517;SDS011;14962;52.482;13.142;2024-03-02T09:02:30;57.60;;;29.20;;
27517;SDS011;14962;52.482;13.142;2024-03-02T09:04:56;61.13;;;28.08;;
27517;SDS011;14962;52.482;13.142;2024-03-02T09:07:22;57.53;;;27.60;;
27517;SDS011;14962;52.482;13.142;2024-03-02T09:09:47;57.65;;;27.85;;
27517;SDS011;14962;52.482;13.142;2024-03-02T09:12:13;62.50;;;28.92;;
27517;SDS011;14962;52.482;13.142;2024-03-02T09:14:40;64.32;;;29.20;;
27517;SDS011;14962;52.482;13.142;2024-03-02T09:17:06;98.00;;;50.90;;
27517;SDS011;14962;52.482;13.142;2024-03-02T09:19:33;65.25;;;31.63;;
27517;SDS011;14962;52.482;13.142;2024-03-02T09:21:59;78.88;;;41.95;;
27517;SDS011;14962;52.482;13.142;2024-03-02T09:24:27;64.88;;;28.67;;
27517;SDS011;14962;52.482;13.142;2024-03-02T09:26:53;54.38;;;27.52;;
27517;SDS011;14962;52.482;13.142;2024-03-02T09:29:19;59.67;;;28.42;;
27517;SDS011;14962;52.482;13.142;2024-03-02T09:31:45;69.20;;;35.97;;
27517;SDS011;14962;52.482;13.142;2024-03-02T09:34:12;67.72;;;30.20;;
27517;SDS011;14962;52.482;13.142;2024-03-02T09:36:39;64.45;;;34.60;;
27517;SDS011;14962;52.482;13.142;2024-03-02T09:39:07;61.85;;;30.10;;
27517;SDS011;14962;52.482;13.142;2024-03-02T09:41:34;51.00;;;25.13;;
27517;SDS011;14962;52.482;13.142;2024-03-02T09:44:00;55.63;;;26.05;;
27517;SDS011;14962;52.482;13.142;2024-03-02T09:46:27;59.25;;;29.75;;
27517;SDS011;14962;52.482;13.142;2024-03-02T09:48:53;49.45;;;24.55;;
27517;SDS011;14962;52.482;13.142;2024-03-02T09:51:19;53.50;;;25.42;;
27517;SDS011;14962;52.482;13.142;2024-03-02T09:53:45;48.78;;;24.67;;
27517;SDS011;14962;52.482;13.142;2024-03-02T09:56:13;55.10;;;25.23;;
27517;SDS011;14962;52.482;13.142;2024-03-02T09:58:40;54.92;;;26.80;;
27517;SDS011;14962;52.482;13.142;2024-03-02T10:01:07;50.85;;;24.77;;
27517;SDS011;14962;52.482;13.142;2024-03-02T10:03:35;49.60;;;24.92;;
27517;SDS011;14962;52.482;13.142;2024-03-02T10:08:46;52.00;;;25.23;;
27517;SDS011;14962;52.482;13.142;2024-03-02T10:11:31;47.30;;;25.05;;
27517;SDS011;14962;52.482;13.142;2024-03-02T10:16:24;43.40;;;23.13;;
27517;SDS011;14962;52.482;13.142;2024-03-02T10:18:50;50.00;;;24.75;;
27517;SDS011;14962;52.482;13.142;2024-03-02T10:21:16;50.63;;;24.35;;
27517;SDS011;14962;52.482;13.142;2024-03-02T10:23:42;45.17;;;22.92;;
27517;SDS011;14962;52.482;13.142;2024-03-02T10:26:18;50.85;;;24.65;;
27517;SDS011;14962;52.482;13.142;2024-03-02T10:28:47;41.33;;;21.92;;
27517;SDS011;14962;52.482;13.142;2024-03-02T10:31:13;35.92;;;19.85;;
27517;SDS011;14962;52.482;13.142;2024-03-02T10:33:39;38.25;;;19.35;;
27517;SDS011;14962;52.482;13.142;2024-03-02T10:36:05;37.63;;;19.92;;
27517;SDS011;14962;52.482;13.142;2024-03-02T10:38:31;33.42;;;18.58;;
27517;SDS011;14962;52.482;13.142;2024-03-02T10:40:58;39.65;;;20.17;;
27517;SDS011;14962;52.482;13.142;2024-03-02T10:43:24;34.50;;;19.27;;
27517;SDS011;14962;52.482;13.142;2024-03-02T10:45:51;36.30;;;19.20;;
27517;SDS011;14962;52.482;13.142;2024-03-02T10:48:18;32.83;;;18.35;;
27517;SDS011;14962;52.482;13.142;2024-03-02T10:50:44;37.60;;;18.90;;
27517;SDS011;14962;52.482;13.142;2024-03-02T10:53:10;33.28;;;18.17;;
27517;SDS011;14962;52.482;13.142;2024-03-02T10:55:36;30.73;;;16.50;;
27517;SDS011;14962;52.482;13.142;2024-03-02T10:58:04;32.97;;;16.42;;
27517;SDS011;14962;52.482;13.142;2024-03-02T11:00:32;34.47;;;17.55;;
27517;SDS011;14962;52.482;13.142;2024-03-02T11:03:05;38.70;;;18.42;;
27517;SDS011;14962;52.482;13.142;2024-03-02T11:05:35;34.45;;;18.08;;
27517;SDS011;14962;52.482;13.142;2024-03-02T11:08:02;36.75;;;17.45;;
27517;SDS011;14962;52.482;13.142;2024-03-02T11:10:31;27.30;;;16.30;;
27517;SDS011;14962;52.482;13.142;2024-03-02T11:13:02;34.53;;;16.70;;
27517;SDS011;14962;52.482;13.142;2024-03-02T11:15:30;34.67;;;16.67;;
27517;SDS011;14962;52.482;13.142;2024-03-02T11:17:57;36.83;;;18.05;;
27517;SDS011;14962;52.482;13.142;2024-03-02T11:20:23;34.13;;;15.95;;
27517;SDS011;14962;52.482;13.142;2024-03-02T11:22:50;33.40;;;17.45;;
27517;SDS011;14962;52.482;13.142;2024-03-02T11:25:26;33.22;;;16.35;;
27517;SDS011;14962;52.482;13.142;2024-03-02T11:33:05;29.90;;;16.17;;
27517;SDS011;14962;52.482;13.142;2024-03-02T11:35:34;29.42;;;15.55;;
27517;SDS011;14962;52.482;13.142;2024-03-02T11:38:01;26.27;;;14.55;;
27517;SDS011;14962;52.482;13.142;2024-03-02T11:40:28;32.13;;;15.15;;
27517;SDS011;14962;52.482;13.142;2024-03-02T11:42:54;28.83;;;15.68;;
27517;SDS011;14962;52.482;13.142;2024-03-02T11:45:26;25.48;;;13.93;;
27517;SDS011;14962;52.482;13.142;2024-03-02T11:47:56;24.10;;;13.50;;
27517;SDS011;14962;52.482;13.142;2024-03-02T11:50:33;29.55;;;14.05;;
27517;SDS011;14962;52.482;13.142;2024-03-02T11:53:00;28.88;;;13.55;;
27517;SDS011;14962;52.482;13.142;2024-03-02T11:55:26;26.05;;;12.82;;
27517;SDS011;14962;52.482;13.142;2024-03-02T11:57:52;25.98;;;14.18;;
27517;SDS011;14962;52.482;13.142;2024-03-02T12:00:19;27.33;;;13.68;;
27517;SDS011;14962;52.482;13.142;2024-03-02T12:02:59;26.85;;;13.25;;
27517;SDS011;14962;52.482;13.142;2024-03-02T12:05:26;24.50;;;13.18;;
27517;SDS011;14962;52.482;13.142;2024-03-02T12:07:58;23.63;;;12.55;;
27517;SDS011;14962;52.482;13.142;2024-03-02T12:10:25;23.55;;;12.73;;
27517;SDS011;14962;52.482;13.142;2024-03-02T12:12:55;21.35;;;12.60;;
27517;SDS011;14962;52.482;13.142;2024-03-02T12:15:31;24.02;;;13.23;;
27517;SDS011;14962;52.482;13.142;2024-03-02T12:17:57;20.75;;;12.63;;
27517;SDS011;14962;52.482;13.142;2024-03-02T12:20:24;24.30;;;13.23;;
27517;SDS011;14962;52.482;13.142;2024-03-02T12:22:51;20.83;;;11.82;;
27517;SDS011;14962;52.482;13.142;2024-03-02T12:25:17;20.80;;;11.52;;
27517;SDS011;14962;52.482;13.142;2024-03-02T12:27:44;20.70;;;12.20;;
27517;SDS011;14962;52.482;13.142;2024-03-02T12:30:11;20.70;;;11.68;;
27517;SDS011;14962;52.482;13.142;2024-03-02T12:32:38;20.13;;;10.65;;
27517;SDS011;14962;52.482;13.142;2024-03-02T12:35:04;20.95;;;11.65;;
27517;SDS011;14962;52.482;13.142;2024-03-02T12:37:31;18.63;;;10.50;;
27517;SDS011;14962;52.482;13.142;2024-03-02T12:39:57;20.17;;;10.88;;
27517;SDS011;14962;52.482;13.142;2024-03-02T12:42:23;20.25;;;11.52;;
27517;SDS011;14962;52.482;13.142;2024-03-02T12:44:53;22.40;;;11.18;;
27517;SDS011;14962;52.482;13.142;2024-03-02T12:47:21;18.08;;;9.82;;
27517;SDS011;14962;52.482;13.142;2024-03-02T12:49:48;16.52;;;9.23;;
27517;SDS011;14962;52.482;13.142;2024-03-02T12:52:15;15.73;;;9.32;;
27517;SDS011;14962;52.482;13.142;2024-03-02T12:54:43;13.63;;;8.45;;
27517;SDS011;14962;52.482;13.142;2024-03-02T12:57:09;18.95;;;9.10;;
27517;SDS011;14962;52.482;13.142;2024-03-02T12:59:35;17.10;;;10.02;;
27517;SDS011;14962;52.482;13.142;2024-03-02T13:02:02;14.13;;;8.15;;
27517;SDS011;14962;52.482;13.142;2024-03-02T13:04:28;15.70;;;9.20;;
27517;SDS011;14962;52.482;13.142;2024-03-02T13:06:55;17.13;;;10.23;;
27517;SDS011;14962;52.482;13.142;2024-03-02T13:09:22;16.27;;;9.48;;
27517;SDS011;14962;52.482;13.142;2024-03-02T13:11:48;15.57;;;9.20;;
27517;SDS011;14962;52.482;13.142;2024-03-02T13:14:14;16.08;;;9.75;;
27517;SDS011;14962;52.482;13.142;2024-03-02T13:16:41;18.45;;;10.32;;
27517;SDS011;14962;52.482;13.142;2024-03-02T13:19:07;17.17;;;10.15;;
27517;SDS011;14962;52.482;13.142;2024-03-02T13:21:33;17.80;;;10.50;;
27517;SDS011;14962;52.482;13.142;2024-03-02T13:23:59;18.33;;;10.10;;
27517;SDS011;14962;52.482;13.142;2024-03-02T13:26:26;24.38;;;10.23;;
27517;SDS011;14962;52.482;13.142;2024-03-02T13:28:52;17.52;;;10.60;;
27517;SDS011;14962;52.482;13.142;2024-03-02T13:31:18;17.95;;;10.07;;
27517;SDS011;14962;52.482;13.142;2024-03-02T13:33:45;19.05;;;10.98;;
27517;SDS011;14962;52.482;13.142;2024-03-02T13:36:11;20.58;;;11.25;;
27517;SDS011;14962;52.482;13.142;2024-03-02T13:38:37;17.40;;;9.77;;
27517;SDS011;14962;52.482;13.142;2024-03-02T13:41:03;23.02;;;11.82;;
27517;SDS011;14962;52.482;13.142;2024-03-02T13:43:29;16.70;;;10.82;;
27517;SDS011;14962;52.482;13.142;2024-03-02T13:46:00;21.50;;;11.55;;
27517;SDS011;14962;52.482;13.142;2024-03-02T13:48:26;23.27;;;11.30;;
27517;SDS011;14962;52.482;13.142;2024-03-02T13:50:52;23.90;;;11.23;;
27517;SDS011;14962;52.482;13.142;2024-03-02T13:53:18;17.98;;;9.60;;
27517;SDS011;14962;52.482;13.142;2024-03-02T13:55:44;19.02;;;10.10;;
27517;SDS011;14962;52.482;13.142;2024-03-02T13:58:10;20.77;;;10.88;;
27517;SDS011;14962;52.482;13.142;2024-03-02T14:00:37;16.73;;;9.93;;
27517;SDS011;14962;52.482;13.142;2024-03-02T14:03:04;18.90;;;9.30;;
27517;SDS011;14962;52.482;13.142;2024-03-02T14:05:30;18.58;;;10.15;;
27517;SDS011;14962;52.482;13.142;2024-03-02T14:07:56;18.40;;;9.93;;
27517;SDS011;14962;52.482;13.142;2024-03-02T14:10:22;21.67;;;11.77;;
27517;SDS011;14962;52.482;13.142;2024-03-02T14:12:48;18.23;;;9.73;;
27517;SDS011;14962;52.482;13.142;2024-03-02T14:15:14;19.25;;;9.73;;
27517;SDS011;14962;52.482;13.142;2024-03-02T14:17:40;18.50;;;9.70;;
27517;SDS011;14962;52.482;13.142;2024-03-02T14:20:07;23.38;;;12.85;;
27517;SDS011;14962;52.482;13.142;2024-03-02T14:22:36;17.88;;;9.93;;